Time;durP1;ratioP1;P1;durP2;ratioP2;P2;SDS_P1;SDS_P2;PMS_P1;PMS_P2;Temp;Humidity;BMP_temperature;BMP_pressure;BME280_temperature;BME280_humidity;BME280_pressure;Samples;Min_cycle;Max_cycle;Signal;HPM_P1;HPM_P2
2022/08/07 00:02:02;;;;;;;4.97;3.20;;;;;;;15.11;68.01;102488.53;5261615;28;20504;-73
2022/08/07 00:04:33;;;;;;;5.80;3.10;;;;;;;15.04;68.65;102484.19;5263263;28;20037;-73
2022/08/07 00:07:05;;;;;;;4.13;2.93;;;;;;;15.00;68.73;102483.31;5262208;28;20116;-73
2022/08/07 00:09:36;;;;;;;4.43;2.63;;;;;;;15.13;68.21;102484.13;5263171;28;20032;-73
2022/08/07 00:12:08;;;;;;;3.50;2.70;;;;;;;14.94;68.81;102483.31;5263194;28;20106;-73
2022/08/07 00:14:39;;;;;;;3.57;2.50;;;;;;;14.95;68.90;102474.56;5264010;28;20033;-73
2022/08/07 00:17:11;;;;;;;6.43;3.70;;;;;;;14.84;69.25;102474.59;5263183;28;20033;-72
2022/08/07 00:19:44;;;;;;;3.60;2.72;;;;;;;14.72;69.73;102469.41;5263495;28;20094;-73
2022/08/07 00:22:15;;;;;;;;;;;;;;;15.08;66.30;102470.16;5263468;28;20041;-73
2022/08/07 00:24:47;;;;;;;3.78;2.53;;;;;;;14.83;69.51;102472.88;5262852;28;19916;-73
2022/08/07 00:27:18;;;;;;;5.90;2.67;;;;;;;14.65;69.92;102462.44;5261266;28;20037;-73
2022/08/07 00:29:49;;;;;;;4.87;2.60;;;;;;;14.72;70.31;102465.03;5262719;28;20386;-73
2022/08/07 00:32:21;;;;;;;5.00;2.77;;;;;;;14.62;70.27;102457.19;5261116;28;20477;-72
2022/08/07 00:34:52;;;;;;;4.20;2.90;;;;;;;14.63;70.73;102457.19;5262687;28;20033;-72
2022/08/07 00:37:25;;;;;;;3.03;2.35;;;;;;;14.57;70.71;102450.19;5262599;28;20029;-73
2022/08/07 00:39:56;;;;;;;5.70;2.72;;;;;;;14.59;70.80;102453.69;5262222;28;20111;-73
2022/08/07 00:42:27;;;;;;;5.10;2.83;;;;;;;14.46;71.12;102438.84;5262804;28;20064;-73
2022/08/07 00:44:59;;;;;;;5.03;2.90;;;;;;;14.31;71.32;102441.47;5262603;28;20489;-73
2022/08/07 00:47:31;;;;;;;3.80;3.00;;;;;;;14.34;71.93;102441.47;5262581;28;20032;-73
2022/08/07 00:50:04;;;;;;;5.00;3.00;;;;;;;14.33;72.16;102442.34;5260829;28;20033;-73
2022/08/07 00:52:35;;;;;;;5.13;2.85;;;;;;;14.39;71.98;102455.47;5262400;28;20040;-73
2022/08/07 00:55:07;;;;;;;4.17;3.00;;;;;;;14.36;72.35;102451.13;5261212;28;20543;-73
2022/08/07 00:57:38;;;;;;;4.57;2.85;;;;;;;14.23;72.67;102447.63;5264017;28;20052;-74
2022/08/07 01:00:10;;;;;;;4.73;3.23;;;;;;;14.21;72.96;102449.38;5266340;28;20123;-72
2022/08/07 01:02:42;;;;;;;5.43;3.20;;;;;;;14.18;72.95;102441.53;5261573;28;20033;-73
2022/08/07 01:05:13;;;;;;;7.00;3.40;;;;;;;14.24;73.04;102440.63;5262317;28;20523;-73
2022/08/07 01:07:45;;;;;;;4.70;3.03;;;;;;;14.22;73.04;102434.53;5261004;28;20032;-73
2022/08/07 01:10:16;;;;;;;6.10;3.40;;;;;;;14.14;73.55;102425.78;5262113;28;20104;-73
2022/08/07 01:12:48;;;;;;;6.10;3.47;;;;;;;14.07;73.74;102438.03;5262143;28;20087;-73
2022/08/07 01:15:22;;;;;;;5.25;3.83;;;;;;;13.97;73.69;102434.53;5260678;28;20111;-73
2022/08/07 01:17:53;;;;;;;4.35;3.28;;;;;;;13.89;74.41;102430.16;5261543;28;20059;-73
2022/08/07 01:20:32;;;;;;;4.37;3.10;;;;;;;13.95;74.48;102423.16;5262045;28;20045;-73
2022/08/07 01:23:03;;;;;;;7.95;3.75;;;;;;;13.88;74.71;102424.06;5261966;28;20028;-73
2022/08/07 01:25:35;;;;;;;6.07;3.47;;;;;;;13.92;74.76;102424.94;5262119;28;20496;-73
2022/08/07 01:28:07;;;;;;;4.47;3.33;;;;;;;13.83;74.76;102421.44;5261993;28;20112;-73
2022/08/07 01:30:40;;;;;;;5.43;3.30;;;;;;;13.79;75.07;102421.44;5261825;28;20037;-73
2022/08/07 01:33:11;;;;;;;7.55;3.92;;;;;;;13.70;74.95;102416.19;5261390;28;20045;-73
2022/08/07 01:35:43;;;;;;;6.07;3.50;;;;;;;13.82;74.97;102419.69;5261761;28;20029;-72
2022/08/07 01:38:16;;;;;;;7.70;4.27;;;;;;;13.71;75.74;102412.69;5261529;28;20041;-73
2022/08/07 01:40:49;;;;;;;5.10;3.30;;;;;;;13.71;75.73;102417.94;5260072;28;20397;-73
2022/08/07 01:43:21;;;;;;;5.13;3.60;;;;;;;13.68;75.88;102410.94;5261712;28;20037;-73
2022/08/07 01:45:54;;;;;;;6.13;3.95;;;;;;;13.75;75.56;102417.06;5243821;28;20033;-73
2022/08/07 01:48:25;;;;;;;4.88;3.40;;;;;;;13.62;75.92;102411.84;5261644;28;20044;-74
2022/08/07 01:51:06;;;;;;;9.03;4.53;;;;;;;13.48;76.25;102419.66;5261467;28;20029;-73
2022/08/07 01:53:43;;;;;;;4.65;3.22;;;;;;;13.49;76.10;102413.56;5261642;28;20033;-73
2022/08/07 01:56:24;;;;;;;6.28;3.50;;;;;;;13.43;76.75;102405.69;5261811;28;20025;-73
2022/08/07 01:59:10;;;;;;;6.55;3.90;;;;;;;13.44;76.44;102410.06;5261401;28;20400;-73
2022/08/07 02:01:51;;;;;;;7.30;3.95;;;;;;;13.40;76.90;102415.31;5261638;28;20090;-73
2022/08/07 02:04:27;;;;;;;4.68;3.40;;;;;;;13.29;76.96;102407.38;5261877;28;20094;-72
2022/08/07 02:07:01;;;;;;;7.07;3.90;;;;;;;13.34;77.26;102413.53;5261369;28;20028;-73
2022/08/07 02:09:33;;;;;;;4.85;3.25;;;;;;;13.14;76.55;102406.47;5261272;28;20074;-72
2022/08/07 02:12:16;;;;;;;6.37;4.00;;;;;;;13.19;77.05;102413.47;5260119;28;20420;-72
2022/08/07 02:14:51;;;;;;;7.60;3.97;;;;;;;13.29;76.87;102413.47;5261360;28;20021;-72
2022/08/07 02:17:24;;;;;;;7.47;3.90;;;;;;;13.18;77.11;102414.34;5261233;28;20021;-72
2022/08/07 02:19:58;;;;;;;5.72;4.25;;;;;;;13.04;77.36;102417.81;5261181;28;20047;-73
2022/08/07 02:22:31;;;;;;;7.32;3.97;;;;;;;13.02;77.76;102409.06;5261260;28;20079;-73
2022/08/07 02:25:05;;;;;;;5.97;4.32;;;;;;;12.98;78.06;102406.44;5261322;28;20025;-73
2022/08/07 02:27:39;;;;;;;7.30;4.53;;;;;;;13.05;78.14;102408.19;5261647;28;20355;-73
2022/08/07 02:30:11;;;;;;;6.72;4.03;;;;;;;12.97;78.20;102394.22;5263405;28;20457;-73
2022/08/07 02:32:43;;;;;;;5.95;4.00;;;;;;;12.99;78.20;102403.81;5265925;28;20035;-72
2022/08/07 02:35:17;;;;;;;7.82;4.05;;;;;;;12.88;78.44;102403.78;5265879;28;20041;-72
2022/08/07 02:37:50;;;;;;;7.65;4.35;;;;;;;12.83;78.78;102402.00;5265046;28;20037;-72
2022/08/07 02:40:22;;;;;;;7.85;4.32;;;;;;;12.72;78.78;102400.25;5264766;28;20036;-72
2022/08/07 02:42:56;;;;;;;6.80;4.30;;;;;;;12.71;78.83;102403.72;5264936;28;20112;-72
2022/08/07 02:45:30;;;;;;;6.35;4.30;;;;;;;12.65;79.29;102393.22;5263731;28;20026;-72
2022/08/07 02:48:01;;;;;;;7.32;4.40;;;;;;;12.63;79.17;102400.19;5264902;28;20111;-72
2022/08/07 02:50:38;;;;;;;6.00;4.30;;;;;;;12.72;79.86;102396.75;5264749;28;20121;-72
2022/08/07 02:53:14;;;;;;;6.03;4.53;;;;;;;12.69;79.73;102388.91;5265023;28;20075;-73
2022/08/07 02:55:48;;;;;;;9.15;6.65;;;;;;;12.54;79.75;102394.91;5265041;28;20401;-73
2022/08/07 02:58:21;;;;;;;7.20;4.47;;;;;;;12.61;80.48;102391.47;5264687;28;20037;-73
2022/08/07 03:00:55;;;;;;;6.78;4.93;;;;;;;12.54;80.19;102395.81;5264907;28;20519;-72
2022/08/07 03:03:30;;;;;;;6.18;4.50;;;;;;;12.46;80.06;102384.44;5264085;28;20025;-73
2022/08/07 03:06:03;;;;;;;4.95;4.00;;;;;;;12.46;80.07;102387.03;5264578;28;20063;-73
2022/08/07 03:08:35;;;;;;;;;;;;;;;12.71;77.67;102393.25;5265109;28;20037;-73
2022/08/07 03:11:07;;;;;;;5.93;4.22;;;;;;;12.46;79.46;102381.81;5264659;28;20285;-73
2022/08/07 03:13:39;;;;;;;6.43;4.20;;;;;;;12.50;80.09;102387.94;5264392;28;20048;-73
2022/08/07 03:16:10;;;;;;;8.03;4.53;;;;;;;12.33;80.10;102390.44;5264519;28;20033;-73
2022/08/07 03:18:42;;;;;;;6.17;4.47;;;;;;;12.27;80.51;102386.06;5268289;28;20576;-73
2022/08/07 03:21:14;;;;;;;8.73;4.77;;;;;;;12.37;80.70;102387.00;5264840;28;20392;-74
2022/08/07 03:23:49;;;;;;;7.57;4.22;;;;;;;12.12;80.67;102385.97;5264512;28;20482;-73
2022/08/07 03:26:24;;;;;;;6.35;5.13;;;;;;;12.16;81.71;102392.97;5264389;28;20111;-73
2022/08/07 03:28:59;;;;;;;7.53;4.80;;;;;;;12.13;81.53;102385.09;5264175;28;20033;-72
2022/08/07 03:31:32;;;;;;;7.75;4.82;;;;;;;12.07;81.41;102392.91;5262820;28;20032;-73
2022/08/07 03:34:06;;;;;;;5.00;4.05;;;;;;;12.03;81.58;102394.63;5263689;28;20473;-72
2022/08/07 03:36:39;;;;;;;7.13;4.82;;;;;;;11.98;82.02;102385.88;5263750;28;20087;-72
2022/08/07 03:39:12;;;;;;;6.38;4.40;;;;;;;12.09;81.95;102386.84;5263823;28;20032;-73
2022/08/07 03:41:44;;;;;;;7.72;5.28;;;;;;;11.98;82.04;102384.13;5263492;28;20053;-73
2022/08/07 03:44:16;;;;;;;5.97;4.67;;;;;;;11.97;82.20;102382.38;5263715;28;20086;-73
2022/08/07 03:46:48;;;;;;;8.40;4.53;;;;;;;11.93;82.27;102382.34;5263077;28;20064;-73
2022/08/07 03:49:20;;;;;;;7.22;4.88;;;;;;;11.93;82.54;102388.47;5263783;28;20298;-74
2022/08/07 03:51:52;;;;;;;6.93;4.93;;;;;;;11.96;82.64;102388.50;5263599;28;20486;-72
2022/08/07 03:54:24;;;;;;;8.20;5.18;;;;;;;11.83;82.77;102394.44;5262882;28;20338;-72
2022/08/07 03:56:56;;;;;;;7.87;5.60;;;;;;;11.91;83.02;102394.50;5262273;28;20082;-72
2022/08/07 03:59:28;;;;;;;6.00;4.82;;;;;;;11.83;82.87;102391.81;5263729;28;20078;-72
2022/08/07 04:02:00;;;;;;;7.30;5.27;;;;;;;11.72;83.03;102394.38;5261816;28;20044;-73
2022/08/07 04:04:31;;;;;;;7.63;5.65;;;;;;;11.64;83.17;102393.41;5264189;28;20029;-71
2022/08/07 04:07:06;;;;;;;8.47;5.70;;;;;;;11.75;83.66;102401.34;5265214;28;20540;-72
2022/08/07 04:09:38;;;;;;;7.25;5.10;;;;;;;11.75;84.03;102402.22;5262071;28;20040;-73
2022/08/07 04:12:11;;;;;;;6.63;5.13;;;;;;;11.82;84.29;102397.94;5262983;28;20029;-72
2022/08/07 04:14:43;;;;;;;7.60;5.10;;;;;;;11.82;84.11;102397.94;5261674;28;20063;-72
2022/08/07 04:17:15;;;;;;;6.53;5.68;;;;;;;11.77;84.03;102408.34;5263089;28;20079;-72
2022/08/07 04:19:48;;;;;;;7.47;5.70;;;;;;;11.67;83.82;102402.16;5261424;28;20029;-72
2022/08/07 04:22:23;;;;;;;7.18;5.15;;;;;;;11.62;84.33;102406.47;5262782;28;20028;-71
2022/08/07 04:24:56;;;;;;;8.85;5.60;;;;;;;11.71;84.61;102404.81;5262466;28;20037;-72
2022/08/07 04:27:28;;;;;;;6.95;5.95;;;;;;;11.71;84.85;102399.56;5262955;28;20029;-72
2022/08/07 04:30:00;;;;;;;7.75;5.53;;;;;;;11.68;84.72;102403.88;5262377;28;20040;-72
2022/08/07 04:32:32;;;;;;;6.20;5.50;;;;;;;11.76;84.80;102406.56;5262217;28;20116;-73
2022/08/07 04:35:05;;;;;;;7.60;5.13;;;;;;;11.61;84.37;102411.69;5244825;28;20390;-72
2022/08/07 04:37:37;;;;;;;7.00;4.97;;;;;;;11.72;84.83;102416.97;5261053;28;20025;-73
2022/08/07 04:40:09;;;;;;;9.07;5.07;;;;;;;11.57;84.37;102417.72;5262400;28;20040;-73
2022/08/07 04:42:41;;;;;;;7.82;4.85;;;;;;;11.58;84.89;102409.03;5262290;28;20424;-72
2022/08/07 04:45:12;;;;;;;7.90;6.27;;;;;;;11.58;85.04;102407.28;5262642;28;20090;-72
2022/08/07 04:47:53;;;;;;;8.83;5.33;;;;;;;11.59;85.73;102401.22;5262372;28;20180;-73
2022/08/07 04:50:40;;;;;;;7.13;5.20;;;;;;;11.61;85.67;102415.16;5262017;28;20029;-73
2022/08/07 04:53:38;;;;;;;8.80;5.65;;;;;;;11.70;85.81;102413.50;5261667;28;20036;-72
2022/08/07 04:56:39;;;;;;;7.43;5.05;;;;;;;11.82;85.44;102416.22;5262169;28;20540;-72
2022/08/07 04:59:19;;;;;;;6.07;4.95;;;;;;;11.84;85.67;102417.97;5262358;28;20120;-73
2022/08/07 05:01:59;;;;;;;7.93;5.20;;;;;;;11.83;85.40;102417.94;5262051;28;20072;-72
2022/08/07 05:04:41;;;;;;;9.85;5.40;;;;;;;11.79;85.76;102419.66;5261476;28;20037;-73
2022/08/07 05:07:18;;;;;;;8.60;5.60;;;;;;;11.87;86.38;102419.72;5262001;28;20394;-73
2022/08/07 05:10:15;;;;;;;7.32;5.72;;;;;;;11.92;86.17;102419.81;5262312;28;20024;-73
2022/08/07 05:12:49;;;;;;;8.38;6.25;;;;;;;11.97;86.41;102428.56;5262270;28;20427;-72
2022/08/07 05:15:34;;;;;;;8.88;5.90;;;;;;;11.94;86.62;102429.38;5261622;28;20036;-73
2022/08/07 05:18:11;;;;;;;6.40;5.55;;;;;;;11.98;85.97;102422.47;5262040;28;20102;-72
2022/08/07 05:20:49;;;;;;;8.48;6.15;;;;;;;12.09;86.55;102430.38;5261784;28;20033;-73
2022/08/07 05:23:35;;;;;;;7.47;6.05;;;;;;;12.10;86.20;102435.63;5261869;28;20112;-73
2022/08/07 05:26:13;;;;;;;8.02;6.07;;;;;;;12.15;86.44;102427.81;5261716;28;20135;-73
2022/08/07 05:28:47;;;;;;;8.13;6.90;;;;;;;12.13;86.38;102432.16;5261552;28;20033;-73
2022/08/07 05:31:21;;;;;;;8.85;5.70;;;;;;;12.17;86.14;102421.75;5261614;28;20028;-72
2022/08/07 05:33:53;;;;;;;8.93;6.38;;;;;;;12.31;86.47;102436.63;5260986;28;20051;-73
2022/08/07 05:36:26;;;;;;;7.03;5.85;;;;;;;12.33;86.68;102438.41;5261426;28;20041;-72
2022/08/07 05:38:59;;;;;;;9.57;6.85;;;;;;;12.31;86.05;102442.72;5265121;28;20545;-72
2022/08/07 05:41:31;;;;;;;10.40;6.85;;;;;;;12.37;85.74;102442.78;5264557;28;20049;-72
2022/08/07 05:44:03;;;;;;;9.07;7.03;;;;;;;12.43;85.51;102446.28;5261658;28;20474;-73
2022/08/07 05:46:36;;;;;;;8.73;7.03;;;;;;;12.48;85.57;102448.06;5261350;28;20140;-72
2022/08/07 05:49:08;;;;;;;8.50;7.25;;;;;;;12.55;85.36;102441.13;5261414;28;20784;-73
2022/08/07 05:51:44;;;;;;;9.18;7.93;;;;;;;12.68;86.35;102439.47;5261364;28;20155;-72
2022/08/07 05:54:16;;;;;;;11.07;8.20;;;;;;;12.80;86.81;102443.88;5261567;28;20083;-72
2022/08/07 05:56:48;;;;;;;9.53;7.53;;;;;;;12.79;85.30;102442.13;5261257;28;20443;-73
2022/08/07 05:59:21;;;;;;;9.55;7.80;;;;;;;12.89;84.80;102442.16;5261247;28;20112;-72
2022/08/07 06:01:54;;;;;;;14.05;9.00;;;;;;;12.91;84.88;102450.03;5259938;28;20044;-73
2022/08/07 06:04:27;;;;;;;9.98;8.95;;;;;;;13.04;84.77;102454.47;5262811;28;20490;-73
2022/08/07 06:07:02;;;;;;;11.38;9.13;;;;;;;13.07;84.46;102457.09;5265301;28;20037;-73
2022/08/07 06:09:34;;;;;;;10.75;9.65;;;;;;;13.17;83.80;102457.09;5265206;28;20041;-72
2022/08/07 06:12:06;;;;;;;10.55;9.00;;;;;;;13.18;83.80;102453.63;5265351;28;20033;-72
2022/08/07 06:14:38;;;;;;;13.50;10.07;;;;;;;13.25;84.03;102455.38;5265935;28;20041;-74
2022/08/07 06:17:12;;;;;;;10.30;8.77;;;;;;;13.27;83.58;102453.66;5265415;28;20437;-73
2022/08/07 06:19:44;;;;;;;11.98;9.18;;;;;;;13.39;83.48;102450.22;5263888;28;20036;-73
2022/08/07 06:22:17;;;;;;;10.90;9.10;;;;;;;13.47;83.32;102449.34;5265280;28;20041;-74
2022/08/07 06:24:49;;;;;;;10.35;8.38;;;;;;;13.57;82.82;102455.50;5264084;28;20054;-74
2022/08/07 06:27:22;;;;;;;9.43;8.43;;;;;;;13.60;82.81;102459.84;5272396;28;20202;-73
2022/08/07 06:29:53;;;;;;;;;;;;;;;13.78;81.75;102459.88;5266954;28;20056;-73
2022/08/07 06:32:24;;;;;;;13.60;8.82;;;;;;;13.81;82.35;102454.66;5265060;28;19913;-73
2022/08/07 06:34:55;;;;;;;10.03;8.90;;;;;;;13.84;81.24;102452.00;5265119;28;20159;-73
2022/08/07 06:37:27;;;;;;;12.23;9.20;;;;;;;13.85;81.35;102451.13;5265370;28;20025;-73
2022/08/07 06:39:58;;;;;;;11.43;9.60;;;;;;;13.93;81.33;102451.16;5265274;28;20116;-74
2022/08/07 06:42:36;;;;;;;15.20;10.47;;;;;;;14.08;82.29;102452.88;5264946;28;20053;-74
2022/08/07 06:45:12;;;;;;;12.02;9.55;;;;;;;14.23;81.88;102460.75;5261941;28;20017;-75
2022/08/07 06:47:44;;;;;;;10.82;8.68;;;;;;;14.29;80.78;102444.09;5269358;28;20032;-74
2022/08/07 06:50:15;;;;;;;13.27;9.27;;;;;;;14.41;81.81;102441.47;5264386;28;20029;-74
2022/08/07 06:52:53;;;;;;;10.40;8.90;;;;;;;14.55;82.33;102443.19;5278862;28;20064;-74
2022/08/07 06:55:30;;;;;;;10.77;9.68;;;;;;;14.60;80.39;102451.94;5283544;28;20510;-74
2022/08/07 06:58:03;;;;;;;10.65;8.18;;;;;;;14.65;79.50;102437.06;5283259;28;20487;-75
2022/08/07 07:00:38;;;;;;;10.48;8.27;;;;;;;14.72;78.05;102436.16;5283161;28;20035;-75
2022/08/07 07:03:10;;;;;;;10.52;8.75;;;;;;;14.87;78.01;102429.97;5283178;28;20441;-74
2022/08/07 07:05:42;;;;;;;10.80;8.73;;;;;;;14.91;77.38;102431.72;5263354;28;20029;-75
2022/08/07 07:08:14;;;;;;;12.02;9.60;;;;;;;15.03;77.89;102436.03;5262451;28;20110;-74
2022/08/07 07:10:45;;;;;;;10.57;8.97;;;;;;;15.06;75.42;102438.63;5263457;28;20028;-74
2022/08/07 07:13:23;;;;;;;11.27;8.83;;;;;;;15.17;77.42;102442.97;5264819;28;20492;-74
2022/08/07 07:16:04;;;;;;;8.95;8.02;;;;;;;15.30;75.73;102445.50;5265117;28;20055;-74
2022/08/07 07:18:42;;;;;;;10.57;8.98;;;;;;;15.47;75.82;102453.31;5266643;28;20029;-74
2022/08/07 07:21:22;;;;;;;10.32;8.48;;;;;;;15.56;74.87;102457.59;5264495;28;20099;-74
2022/08/07 07:23:54;;;;;;;13.50;8.02;;;;;;;15.66;73.72;102447.91;5277487;28;20143;-74
2022/08/07 07:26:29;;;;;;;10.18;8.23;;;;;;;15.81;72.51;102449.56;5283914;28;20043;-74
2022/08/07 07:29:12;;;;;;;11.40;8.80;;;;;;;15.93;71.95;102440.72;5283212;28;20031;-74
2022/08/07 07:31:49;;;;;;;9.43;8.25;;;;;;;16.07;70.51;102444.09;5280515;28;20032;-73
2022/08/07 07:34:32;;;;;;;10.40;8.20;;;;;;;16.11;71.16;102440.53;5283094;28;20021;-73
2022/08/07 07:37:06;;;;;;;10.27;8.32;;;;;;;16.25;70.63;102440.41;5263078;28;20082;-73
2022/08/07 07:39:38;;;;;;;10.30;8.82;;;;;;;16.36;70.59;102435.91;5260997;28;20090;-74
2022/08/07 07:42:11;;;;;;;9.88;8.68;;;;;;;16.36;71.05;102435.06;5245447;28;20057;-73
2022/08/07 07:44:45;;;;;;;10.02;8.50;;;;;;;16.57;69.45;102433.94;5260977;28;20036;-74
2022/08/07 07:47:18;;;;;;;10.63;8.68;;;;;;;16.59;70.89;102427.75;5261316;28;20112;-74
2022/08/07 07:49:52;;;;;;;10.52;8.65;;;;;;;16.65;67.32;102426.81;5260447;28;20028;-73
2022/08/07 07:52:25;;;;;;;11.02;8.63;;;;;;;16.82;67.22;102423.09;5262133;28;20028;-72
2022/08/07 07:54:57;;;;;;;9.98;7.38;;;;;;;16.90;67.67;102427.41;5271604;28;20153;-73
2022/08/07 07:57:30;;;;;;;12.57;8.43;;;;;;;16.99;66.61;102429.06;5283368;28;20032;-73
2022/08/07 08:00:03;;;;;;;12.13;8.07;;;;;;;17.16;68.55;102415.63;5282814;28;20523;-73
2022/08/07 08:02:38;;;;;;;10.32;7.07;;;;;;;17.28;64.68;102417.22;5281717;28;20401;-73
2022/08/07 08:05:10;;;;;;;11.60;7.55;;;;;;;17.45;66.16;102415.22;5282733;28;20488;-73
2022/08/07 08:07:43;;;;;;;9.77;7.45;;;;;;;17.52;63.07;102423.00;5282889;28;20090;-73
2022/08/07 08:10:16;;;;;;;10.20;6.95;;;;;;;17.67;63.66;102414.84;5281675;28;20025;-73
2022/08/07 08:12:49;;;;;;;8.85;6.75;;;;;;;17.67;65.81;102420.13;5272970;28;20036;-74
2022/08/07 08:15:21;;;;;;;10.13;6.63;;;;;;;17.83;63.67;102421.63;5282538;28;20037;-75
2022/08/07 08:17:55;;;;;;;9.52;6.20;;;;;;;17.74;61.23;102419.16;5281623;28;20045;-73
2022/08/07 08:20:31;;;;;;;7.88;5.90;;;;;;;17.79;62.97;102419.94;5282061;28;20102;-73
2022/08/07 08:27:03;;;;;;;;;;;;;;;18.17;64.42;102426.31;5283067;28;20041;-73
2022/08/07 08:28:59;;;;;;;8.77;6.90;;;;;;;18.25;62.80;102415.63;5281668;28;19913;-73
2022/08/07 08:31:35;;;;;;;10.27;6.60;;;;;;;18.37;63.12;102427.72;5281779;28;20475;-73
2022/08/07 08:34:09;;;;;;;9.35;5.78;;;;;;;18.31;62.24;102423.44;5281906;28;20020;-75
2022/08/07 08:36:42;;;;;;;7.95;4.72;;;;;;;18.59;60.19;102428.16;5282467;28;20454;-74
2022/08/07 08:39:13;;;;;;;5.88;4.30;;;;;;;18.55;59.38;102426.50;5280812;28;20033;-74
2022/08/07 08:42:03;;;;;;;6.63;5.67;;;;;;;18.76;61.24;102422.56;5282518;28;20564;-75
2022/08/07 08:44:40;;;;;;;6.82;5.60;;;;;;;18.75;62.31;102426.94;5271316;28;20033;-75
2022/08/07 08:47:14;;;;;;;7.72;4.70;;;;;;;18.90;61.58;102428.44;5272674;28;20055;-76
2022/08/07 08:50:21;;;;;;;5.88;3.97;;;;;;;19.01;57.41;102435.25;5281405;28;20068;-75
2022/08/07 08:53:01;;;;;;;6.55;4.15;;;;;;;19.03;58.73;102425.50;5199799;28;20034;-76
2022/08/07 08:56:01;;;;;;;8.13;4.53;;;;;;;19.23;57.92;102422.44;5273644;28;20036;-73
2022/08/07 08:58:47;;;;;;;7.55;4.35;;;;;;;19.27;56.69;102422.34;5282782;28;20070;-74
2022/08/07 09:01:46;;;;;;;5.07;3.60;;;;;;;19.25;56.64;102420.63;5283159;28;20055;-73
2022/08/07 09:04:44;;;;;;;7.07;3.63;;;;;;;19.50;59.47;102421.78;5281663;28;20028;-73
2022/08/07 09:07:26;;;;;;;6.50;3.72;;;;;;;19.41;55.34;102422.00;5251510;28;20546;-73
2022/08/07 09:10:13;;;;;;;5.82;4.00;;;;;;;19.54;54.41;102417.28;5282223;28;20487;-73
2022/08/07 09:13:09;;;;;;;5.60;4.20;;;;;;;19.71;54.75;102418.66;5282655;28;20473;-73
2022/08/07 09:15:59;;;;;;;7.25;4.00;;;;;;;19.67;54.70;102413.44;5282294;28;20381;-74
2022/08/07 09:18:42;;;;;;;8.30;3.92;;;;;;;19.96;51.85;102421.56;5282980;28;20032;-74
2022/08/07 09:21:33;;;;;;;4.68;2.90;;;;;;;20.05;51.46;102421.31;5280957;28;20155;-73
2022/08/07 09:24:13;;;;;;;7.40;3.28;;;;;;;19.93;50.76;102416.34;5281732;28;20111;-73
2022/08/07 09:27:17;;;;;;;6.22;3.67;;;;;;;20.08;51.63;102413.31;5282165;28;20039;-73
2022/08/07 09:29:48;;;;;;;5.68;3.47;;;;;;;20.09;48.25;102414.16;5281664;28;20068;-74
2022/08/07 09:32:35;;;;;;;8.40;4.27;;;;;;;20.06;50.40;102403.66;5277129;28;20055;-74
2022/08/07 09:35:25;;;;;;;5.93;3.70;;;;;;;20.34;51.34;102406.44;5270089;28;20033;-73
2022/08/07 09:38:22;;;;;;;7.45;4.22;;;;;;;20.55;55.26;102404.94;5260922;28;20083;-74
2022/08/07 09:41:07;;;;;;;4.85;3.70;;;;;;;20.74;51.99;102410.63;5260515;28;20049;-74
2022/08/07 09:43:51;;;;;;;5.07;4.00;;;;;;;20.83;47.48;102409.44;5260747;28;20127;-73
2022/08/07 09:46:50;;;;;;;5.63;3.95;;;;;;;21.00;48.93;102399.22;5263810;28;20037;-73
2022/08/07 09:49:58;;;;;;;8.10;4.82;;;;;;;21.35;48.55;102402.53;5260506;28;20044;-72
2022/08/07 09:52:48;;;;;;;6.20;3.30;;;;;;;21.97;47.71;102387.22;5279849;28;20051;-73
2022/08/07 09:55:24;;;;;;;4.10;2.97;;;;;;;22.45;43.37;102391.69;5281640;28;20462;-72
2022/08/07 09:58:26;;;;;;;3.33;2.42;;;;;;;22.17;43.33;102384.72;5281750;28;20466;-72
2022/08/07 10:01:19;;;;;;;3.43;2.73;;;;;;;22.56;49.80;102384.19;5270235;28;20032;-73
2022/08/07 10:04:13;;;;;;;5.20;2.95;;;;;;;22.74;43.21;102376.44;5259437;28;20139;-74
2022/08/07 10:07:12;;;;;;;7.05;3.53;;;;;;;23.00;44.75;102374.53;5273190;28;20024;-73
2022/08/07 10:10:05;;;;;;;5.95;4.25;;;;;;;23.22;41.09;102369.25;5280861;28;20032;-73
2022/08/07 10:12:51;;;;;;;4.13;3.28;;;;;;;24.13;42.67;102370.72;5280007;28;20052;-73
2022/08/07 10:15:40;;;;;;;5.63;3.35;;;;;;;24.50;39.03;102374.34;5279520;28;20040;-73
2022/08/07 10:18:49;;;;;;;4.03;3.22;;;;;;;25.59;41.17;102365.56;5271323;28;20045;-73
2022/08/07 10:21:40;;;;;;;5.93;3.10;;;;;;;26.63;40.32;102360.94;5259048;28;20032;-73
2022/08/07 10:24:18;;;;;;;5.85;3.05;;;;;;;27.02;36.46;102363.22;5258232;28;20025;-72
2022/08/07 10:26:55;;;;;;;7.32;3.25;;;;;;;26.96;33.56;102360.03;5260169;28;20440;-73
2022/08/07 10:29:44;;;;;;;6.15;3.05;;;;;;;27.90;35.10;102363.41;5258127;28;20496;-73
2022/08/07 10:32:53;;;;;;;6.22;2.92;;;;;;;27.81;33.57;102366.63;5260683;28;20350;-73
2022/08/07 10:35:47;;;;;;;4.03;3.20;;;;;;;27.88;32.64;102351.03;5260957;28;20163;-74
2022/08/07 10:38:38;;;;;;;6.13;3.42;;;;;;;28.60;35.86;102364.47;5259712;28;20029;-72
2022/08/07 10:41:30;;;;;;;4.10;2.60;;;;;;;28.99;30.41;102360.13;5276361;28;20202;-72
2022/08/07 10:44:18;;;;;;;3.95;3.00;;;;;;;29.69;31.16;102353.66;5280066;28;20108;-73
2022/08/07 10:46:54;;;;;;;4.32;2.75;;;;;;;29.20;32.53;102350.66;5279451;28;20422;-72
2022/08/07 10:49:36;;;;;;;4.68;3.28;;;;;;;28.86;28.85;102349.34;5279249;28;20028;-73
2022/08/07 10:52:13;;;;;;;3.90;3.00;;;;;;;29.07;31.16;102358.66;5277259;28;20053;-73
2022/08/07 10:54:56;;;;;;;5.05;3.03;;;;;;;29.62;30.87;102345.16;5263655;28;20075;-73
2022/08/07 10:57:46;;;;;;;3.42;2.88;;;;;;;29.58;28.42;102340.97;5262152;28;20033;-74
2022/08/07 11:00:18;;;;;;;4.90;2.90;;;;;;;29.41;30.18;102342.13;5263107;28;20028;-74
2022/08/07 11:03:06;;;;;;;8.05;3.22;;;;;;;30.14;29.89;102332.56;5262230;28;20040;-74
2022/08/07 11:05:44;;;;;;;5.10;3.80;;;;;;;30.49;28.85;102335.41;5262629;28;20021;-75
2022/08/07 11:08:52;;;;;;;4.18;2.97;;;;;;;31.90;28.66;102325.69;5264377;28;20108;-74
2022/08/07 11:11:30;;;;;;;3.55;2.50;;;;;;;31.55;28.69;102321.22;5263935;28;20121;-74
2022/08/07 11:14:14;;;;;;;2.72;2.15;;;;;;;32.19;25.92;102316.28;5263260;28;20051;-74
2022/08/07 11:16:57;;;;;;;4.63;2.80;;;;;;;32.30;25.41;102318.94;5264138;28;20020;-75
2022/08/07 11:19:36;;;;;;;5.22;3.00;;;;;;;31.24;24.84;102307.41;5263558;28;20052;-74
2022/08/07 11:22:14;;;;;;;5.18;3.25;;;;;;;31.05;26.85;102307.97;5261266;28;20040;-74
2022/08/07 11:25:15;;;;;;;6.72;3.00;;;;;;;31.89;25.74;102309.63;5279971;28;20037;-74
2022/08/07 11:28:00;;;;;;;3.97;2.30;;;;;;;32.03;25.68;102300.44;5281915;28;20056;-74
2022/08/07 11:30:44;;;;;;;3.85;2.40;;;;;;;32.68;24.14;102299.63;5261119;28;20028;-74
2022/08/07 11:33:35;;;;;;;2.53;1.95;;;;;;;32.82;21.10;102303.84;5262682;28;20060;-75
2022/08/07 11:36:33;;;;;;;3.35;2.28;;;;;;;32.99;23.21;102304.25;5263254;28;20029;-74
2022/08/07 11:39:37;;;;;;;4.22;2.50;;;;;;;33.87;21.99;102300.28;5262305;28;20035;-73
2022/08/07 11:42:18;;;;;;;3.88;1.88;;;;;;;33.60;23.62;102296.31;5283008;28;20087;-73
2022/08/07 11:45:09;;;;;;;2.88;2.47;;;;;;;34.41;24.40;102289.19;5282609;28;20036;-72
2022/08/07 11:48:01;;;;;;;3.95;2.40;;;;;;;35.00;20.30;102287.38;5283495;28;20047;-72
2022/08/07 11:51:06;;;;;;;2.58;2.28;;;;;;;36.06;22.53;102281.81;5284098;28;20116;-73
2022/08/07 11:53:56;;;;;;;4.97;2.22;;;;;;;36.02;18.97;102283.97;5274220;28;20414;-76
2022/08/07 11:57:01;;;;;;;9.15;2.38;;;;;;;37.09;21.43;102292.34;5263552;28;20033;-74
2022/08/07 11:59:54;;;;;;;3.50;2.45;;;;;;;36.08;19.54;102290.66;5272096;28;20081;-73
2022/08/07 12:03:02;;;;;;;3.78;2.58;;;;;;;35.36;21.21;102271.38;5283762;28;20047;-73
2022/08/07 12:05:54;;;;;;;3.60;2.45;;;;;;;35.56;19.00;102278.44;5283003;28;20040;-74
2022/08/07 12:08:32;;;;;;;3.60;2.40;;;;;;;34.76;20.40;102272.47;5282374;28;20040;-73
2022/08/07 12:11:15;;;;;;;3.42;2.80;;;;;;;34.63;22.03;102266.41;5279711;28;20407;-73
2022/08/07 12:13:56;;;;;;;4.05;2.92;;;;;;;35.36;20.99;102272.22;5261881;28;20429;-73
2022/08/07 12:16:32;;;;;;;6.18;2.70;;;;;;;35.73;18.95;102273.25;5261025;28;20450;-75
2022/08/07 12:19:18;;;;;;;3.25;2.95;;;;;;;36.00;19.91;102277.81;5261700;28;20107;-73